createdAt,value
2018-03-07T00:00:41.925Z,52.80
2018-03-07T00:03:10.713Z,52.90
2018-03-07T00:05:39.428Z,53.10
2018-03-07T00:08:08.820Z,53.30
2018-03-07T00:10:37.339Z,53.00
2018-03-07T00:13:05.779Z,52.90
2018-03-07T00:16:06.568Z,53.10
2018-03-07T00:18:57.703Z,53.10
2018-03-07T00:24:49.784Z,53.40
2018-03-07T00:27:19.016Z,53.30
2018-03-07T00:29:48.244Z,53.70
2018-03-07T00:32:16.959Z,53.70
2018-03-07T00:34:46.056Z,53.90
2018-03-07T00:37:14.717Z,54.00
2018-03-07T00:39:43.186Z,54.10
2018-03-07T00:42:11.871Z,54.90
2018-03-07T00:44:40.596Z,54.10
2018-03-07T00:47:09.154Z,54.30
2018-03-07T00:49:37.669Z,54.00
2018-03-07T00:52:06.189Z,54.20
2018-03-07T00:54:34.777Z,54.30
2018-03-07T00:57:03.416Z,54.30
2018-03-07T00:59:32.102Z,54.40
2018-03-07T01:02:00.640Z,54.50
2018-03-07T01:04:29.099Z,54.40
2018-03-07T01:06:58.747Z,54.70
2018-03-07T01:09:27.849Z,54.60
2018-03-07T01:11:56.558Z,54.70
2018-03-07T01:14:25.106Z,54.60
2018-03-07T01:16:53.572Z,54.60
2018-03-07T01:19:22.083Z,54.60
2018-03-07T01:21:52.198Z,54.60
2018-03-07T01:24:20.680Z,54.50
2018-03-07T01:26:49.166Z,54.40
2018-03-07T01:29:17.667Z,54.70
2018-03-07T01:31:46.360Z,54.50
2018-03-07T01:34:14.932Z,54.60
2018-03-07T01:36:44.152Z,54.70
2018-03-07T01:39:13.762Z,54.60
2018-03-07T01:41:44.030Z,54.50
2018-03-07T01:44:12.999Z,54.70
2018-03-07T01:46:42.365Z,54.80
2018-03-07T01:49:10.879Z,54.70
2018-03-07T01:51:58.077Z,54.60
2018-03-07T01:54:27.159Z,54.50
2018-03-07T01:56:55.844Z,54.50
2018-03-07T01:59:24.454Z,54.60
2018-03-07T02:01:53.763Z,54.50
2018-03-07T02:04:24.026Z,54.60
2018-03-07T02:06:52.860Z,54.60
2018-03-07T02:09:21.954Z,54.50
2018-03-07T02:11:50.409Z,54.60
2018-03-07T02:14:19.532Z,54.60
2018-03-07T02:16:48.006Z,54.60
2018-03-07T02:19:16.694Z,54.70
2018-03-07T02:21:45.340Z,54.60
2018-03-07T02:24:14.011Z,54.60
2018-03-07T02:26:42.741Z,54.70
2018-03-07T02:29:13.297Z,54.80
2018-03-07T02:31:42.761Z,54.90
2018-03-07T02:34:11.416Z,54.80
2018-03-07T02:36:45.343Z,55.00
2018-03-07T02:39:17.401Z,54.90
2018-03-07T02:41:46.028Z,54.90
2018-03-07T02:44:25.581Z,54.80
2018-03-07T02:46:58.624Z,54.90
2018-03-07T02:49:27.760Z,54.90
2018-03-07T02:51:56.762Z,54.90
2018-03-07T02:54:27.370Z,55.70
2018-03-07T02:57:02.192Z,55.10
2018-03-07T02:59:37.118Z,55.20
2018-03-07T03:02:05.903Z,55.20
2018-03-07T03:04:35.452Z,55.20
2018-03-07T03:07:04.017Z,55.30
2018-03-07T03:09:32.668Z,55.20
2018-03-07T03:12:01.119Z,55.20
2018-03-07T03:14:29.891Z,55.20
2018-03-07T03:16:58.388Z,55.30
2018-03-07T03:19:26.949Z,55.40
2018-03-07T03:21:55.562Z,55.30
2018-03-07T03:24:24.799Z,55.40
2018-03-07T03:26:53.298Z,55.40
2018-03-07T03:29:21.969Z,55.40
2018-03-07T03:31:50.606Z,55.50
2018-03-07T03:34:19.114Z,55.50
2018-03-07T03:36:48.585Z,55.40
2018-03-07T03:39:17.703Z,55.40
2018-03-07T03:41:47.146Z,55.30
2018-03-07T03:44:16.503Z,55.30
2018-03-07T03:46:46.430Z,55.50
2018-03-07T03:49:14.951Z,56.60
2018-03-07T03:51:43.558Z,55.50
2018-03-07T03:54:12.786Z,55.50
2018-03-07T03:56:42.598Z,55.50
2018-03-07T03:59:11.363Z,55.40
2018-03-07T04:01:40.610Z,55.50
2018-03-07T04:04:09.068Z,55.60
2018-03-07T04:06:44.559Z,55.60
2018-03-07T04:09:16.064Z,56.30
2018-03-07T04:11:46.944Z,55.60
2018-03-07T04:14:16.053Z,55.60
2018-03-07T04:16:45.458Z,55.60
2018-03-07T04:19:15.361Z,55.50
2018-03-07T04:22:07.313Z,55.60
2018-03-07T04:24:35.824Z,56.30
2018-03-07T04:27:04.471Z,55.60
2018-03-07T04:29:44.276Z,55.60
2018-03-07T04:32:20.136Z,55.50
2018-03-07T04:34:52.832Z,55.60
2018-03-07T04:37:21.652Z,55.60
2018-03-07T04:39:54.548Z,55.60
2018-03-07T04:42:27.614Z,55.50
2018-03-07T04:44:58.532Z,55.60
2018-03-07T04:47:30.413Z,55.60
2018-03-07T04:50:08.318Z,55.60
2018-03-07T04:52:39.158Z,55.50
2018-03-07T04:55:08.988Z,55.50
2018-03-07T04:57:47.161Z,55.60
2018-03-07T05:00:20.464Z,55.50
2018-03-07T05:02:56.290Z,55.50
2018-03-07T05:05:27.740Z,55.50
2018-03-07T05:07:56.702Z,55.50
2018-03-07T05:10:39.286Z,55.50
2018-03-07T05:13:10.551Z,55.50
2018-03-07T05:15:39.450Z,55.50
2018-03-07T05:18:09.817Z,55.50
2018-03-07T05:20:40.488Z,55.60
2018-03-07T05:23:10.385Z,55.50
2018-03-07T05:25:40.585Z,55.60
2018-03-07T05:28:09.868Z,55.60
2018-03-07T05:30:39.149Z,55.60
2018-03-07T05:33:10.223Z,55.60
2018-03-07T05:35:39.488Z,55.70
2018-03-07T05:38:07.921Z,55.70
2018-03-07T05:40:36.448Z,55.70
2018-03-07T05:43:05.782Z,55.70
2018-03-07T05:45:35.252Z,55.80
2018-03-07T05:48:04.512Z,55.70
2018-03-07T05:50:33.043Z,55.80
2018-03-07T05:53:01.518Z,55.90
2018-03-07T05:55:30.055Z,55.80
2018-03-07T05:57:59.001Z,55.80
2018-03-07T06:00:27.469Z,55.80
2018-03-07T06:02:57.090Z,55.90
2018-03-07T06:05:25.633Z,55.90
2018-03-07T06:07:54.252Z,55.70
2018-03-07T06:10:24.332Z,55.80
2018-03-07T06:12:53.036Z,55.90
2018-03-07T06:15:21.649Z,55.90
2018-03-07T06:17:50.245Z,55.70
2018-03-07T06:20:20.558Z,55.70
2018-03-07T06:22:50.472Z,55.70
2018-03-07T06:25:20.262Z,55.80
2018-03-07T06:27:49.227Z,55.80
2018-03-07T06:30:18.222Z,56.50
2018-03-07T06:32:51.896Z,55.70
2018-03-07T06:35:24.166Z,55.80
2018-03-07T06:37:54.161Z,55.90
2018-03-07T06:40:26.032Z,55.90
2018-03-07T06:42:55.216Z,55.90
2018-03-07T06:45:23.715Z,56.00
2018-03-07T06:47:52.830Z,56.10
2018-03-07T06:50:22.907Z,56.00
2018-03-07T06:52:52.194Z,55.80
2018-03-07T06:55:24.027Z,55.40
2018-03-07T06:57:53.232Z,54.70
2018-03-07T07:00:25.114Z,54.70
2018-03-07T07:03:06.418Z,54.60
2018-03-07T07:05:34.919Z,54.40
2018-03-07T07:08:03.363Z,54.30
2018-03-07T07:10:31.863Z,54.40
2018-03-07T07:13:00.742Z,55.30
2018-03-07T07:15:29.422Z,55.40
2018-03-07T07:17:58.085Z,55.60
2018-03-07T07:20:27.642Z,55.80
2018-03-07T07:22:56.098Z,56.10
2018-03-07T07:25:24.581Z,56.10
2018-03-07T07:27:53.030Z,56.10
2018-03-07T07:30:25.143Z,56.40
2018-03-07T07:32:53.651Z,56.40
2018-03-07T07:35:22.747Z,56.50
2018-03-07T07:37:51.429Z,57.00
2018-03-07T07:40:20.114Z,57.10
2018-03-07T07:42:48.737Z,57.00
2018-03-07T07:45:19.849Z,57.20
2018-03-07T07:47:48.517Z,57.10
2018-03-07T07:50:17.283Z,57.00
2018-03-07T07:52:45.890Z,57.00
2018-03-07T07:55:14.435Z,57.00
2018-03-07T07:57:42.953Z,57.10
2018-03-07T08:00:11.363Z,57.10
2018-03-07T08:02:40.639Z,56.90
2018-03-07T08:05:09.118Z,56.90
2018-03-07T08:07:38.551Z,56.60
2018-03-07T08:10:08.056Z,56.00
2018-03-07T08:12:37.427Z,55.80
2018-03-07T08:15:08.206Z,55.70
2018-03-07T08:17:37.130Z,55.60
2018-03-07T08:20:09.319Z,55.60
2018-03-07T08:22:39.873Z,55.20
2018-03-07T08:25:09.061Z,55.00
2018-03-07T08:27:40.282Z,55.00
2018-03-07T08:30:09.811Z,55.10
2018-03-07T08:32:38.718Z,55.00
2018-03-07T08:35:08.405Z,55.00
2018-03-07T08:37:37.406Z,55.00
2018-03-07T08:40:06.384Z,54.90
2018-03-07T08:42:34.977Z,54.80
2018-03-07T08:45:04.023Z,55.30
2018-03-07T08:47:33.229Z,56.00
2018-03-07T08:50:02.572Z,56.00
2018-03-07T08:52:31.354Z,56.30
2018-03-07T08:55:00.459Z,56.10
2018-03-07T08:57:29.429Z,56.10
2018-03-07T08:59:58.264Z,56.00
2018-03-07T09:02:27.526Z,55.90
2018-03-07T09:04:56.543Z,55.70
2018-03-07T09:07:25.010Z,55.70
2018-03-07T09:09:53.926Z,55.70
2018-03-07T09:12:24.144Z,55.50
2018-03-07T09:14:53.554Z,55.60
2018-03-07T09:17:22.423Z,55.80
2018-03-07T09:19:51.643Z,55.80
2018-03-07T09:22:20.128Z,56.00
2018-03-07T09:24:48.560Z,55.90
2018-03-07T09:27:17.281Z,55.80
2018-03-07T09:29:45.732Z,55.90
2018-03-07T09:32:14.505Z,56.00
2018-03-07T09:34:43.130Z,56.00
2018-03-07T09:37:11.725Z,55.90
2018-03-07T09:39:40.170Z,56.10
2018-03-07T09:42:08.805Z,56.20
2018-03-07T09:47:12.215Z,56.10
2018-03-07T09:49:40.904Z,56.20
2018-03-07T09:52:09.545Z,56.10
2018-03-07T09:54:37.999Z,56.20
2018-03-07T09:57:08.822Z,56.20
2018-03-07T09:59:46.658Z,56.20
2018-03-07T10:02:25.936Z,56.20
2018-03-07T10:05:01.315Z,56.20
2018-03-07T10:07:30.783Z,56.30
2018-03-07T10:09:59.569Z,56.20
2018-03-07T10:12:28.365Z,56.20
2018-03-07T10:14:56.789Z,56.20
2018-03-07T10:17:25.425Z,56.40
2018-03-07T10:19:53.955Z,56.10
2018-03-07T10:22:22.395Z,56.40
2018-03-07T10:24:51.885Z,56.40
2018-03-07T10:27:21.358Z,56.40
2018-03-07T10:29:50.081Z,56.40
2018-03-07T10:32:18.635Z,56.40
2018-03-07T10:34:47.348Z,56.40
2018-03-07T10:37:16.182Z,56.40
2018-03-07T10:39:44.625Z,56.40
2018-03-07T10:42:16.247Z,56.10
2018-03-07T10:44:44.961Z,56.00
2018-03-07T10:47:13.500Z,56.10
2018-03-07T10:49:42.154Z,56.20
2018-03-07T10:52:11.404Z,56.70
2018-03-07T10:54:39.892Z,56.20
2018-03-07T10:57:08.394Z,56.00
2018-03-07T10:59:44.090Z,56.00
2018-03-07T11:02:13.488Z,55.90
2018-03-07T11:04:42.957Z,55.60
2018-03-07T11:07:11.423Z,55.60
2018-03-07T11:09:40.954Z,55.80
2018-03-07T11:12:09.630Z,55.70
2018-03-07T11:14:38.114Z,55.90
2018-03-07T11:17:06.741Z,55.90
2018-03-07T11:19:35.242Z,55.90
2018-03-07T11:22:03.965Z,55.80
2018-03-07T11:24:32.652Z,56.00
2018-03-07T11:27:01.340Z,55.90
2018-03-07T11:29:30.023Z,56.10
2018-03-07T11:31:58.539Z,55.70
2018-03-07T11:34:27.774Z,55.80
2018-03-07T11:36:56.450Z,55.70
2018-03-07T11:39:24.911Z,55.60
2018-03-07T11:41:54.244Z,55.50
2018-03-07T11:44:22.717Z,55.40
2018-03-07T11:46:51.304Z,55.40
2018-03-07T11:49:19.912Z,55.20
2018-03-07T11:51:48.423Z,55.30
2018-03-07T11:54:17.063Z,55.40
2018-03-07T11:56:45.677Z,55.40
2018-03-07T11:59:14.182Z,55.60
2018-03-07T12:01:43.666Z,55.40
2018-03-07T12:04:12.352Z,55.40
2018-03-07T12:06:40.883Z,55.60
2018-03-07T12:09:09.369Z,55.60
2018-03-07T12:11:38.074Z,55.50
2018-03-07T12:14:06.525Z,55.70
2018-03-07T12:16:35.266Z,55.70
2018-03-07T12:19:03.943Z,55.70
2018-03-07T12:21:32.406Z,55.70
2018-03-07T12:24:01.092Z,55.80
2018-03-07T12:26:29.672Z,55.80
2018-03-07T12:28:58.132Z,55.70
2018-03-07T12:31:28.314Z,55.90
2018-03-07T12:34:24.750Z,55.80
2018-03-07T12:37:21.531Z,55.90
2018-03-07T12:40:18.552Z,56.00
2018-03-07T12:42:46.993Z,56.00
2018-03-07T12:45:18.782Z,56.00
2018-03-07T12:47:47.448Z,56.10
2018-03-07T12:50:16.037Z,55.90
2018-03-07T12:52:44.495Z,56.10
2018-03-07T12:55:13.242Z,56.10
2018-03-07T12:57:42.068Z,56.10
2018-03-07T13:00:10.698Z,56.20
2018-03-07T13:02:39.546Z,56.20
2018-03-07T13:05:08.259Z,56.30
2018-03-07T13:07:37.899Z,55.10
2018-03-07T13:10:06.717Z,55.10
2018-03-07T13:12:36.820Z,55.10
2018-03-07T13:15:06.194Z,55.40
2018-03-07T13:17:35.017Z,55.40
2018-03-07T13:20:06.294Z,55.20
2018-03-07T13:22:36.363Z,55.20
2018-03-07T13:25:05.922Z,55.20
2018-03-07T13:27:35.489Z,55.90
2018-03-07T13:30:04.198Z,55.80
2018-03-07T13:32:33.523Z,55.80
2018-03-07T13:35:02.099Z,55.90
2018-03-07T13:37:30.737Z,56.20
2018-03-07T13:39:59.520Z,55.90
2018-03-07T13:42:28.917Z,55.80
2018-03-07T13:44:58.383Z,56.10
2018-03-07T13:47:26.972Z,56.00
2018-03-07T13:49:55.519Z,56.00
2018-03-07T13:52:25.001Z,55.90
2018-03-07T13:54:53.657Z,55.70
2018-03-07T13:57:22.130Z,55.90
2018-03-07T13:59:50.749Z,55.80
2018-03-07T14:02:19.441Z,55.80
2018-03-07T14:04:48.910Z,55.80
2018-03-07T14:07:17.492Z,55.80
2018-03-07T14:09:45.951Z,48.70
2018-03-07T14:12:14.438Z,51.10
2018-03-07T14:14:43.202Z,53.90
2018-03-07T14:17:12.528Z,54.30
2018-03-07T14:19:43.062Z,54.30
2018-03-07T14:22:11.870Z,54.10
2018-03-07T14:24:40.472Z,54.20
2018-03-07T14:27:09.016Z,54.20
2018-03-07T14:29:37.650Z,54.90
2018-03-07T14:32:06.416Z,54.60
2018-03-07T14:34:35.851Z,54.40
2018-03-07T14:37:04.721Z,54.40
2018-03-07T14:39:33.310Z,54.30
2018-03-07T14:42:01.968Z,54.40
2018-03-07T14:44:30.660Z,54.30
2018-03-07T14:46:59.268Z,54.00
2018-03-07T14:49:27.728Z,54.00
2018-03-07T14:51:56.422Z,54.30
2018-03-07T14:54:24.876Z,54.10
2018-03-07T14:56:53.467Z,54.20
2018-03-07T14:59:22.428Z,54.30
2018-03-07T15:01:51.810Z,54.80
2018-03-07T15:04:20.283Z,54.10
2018-03-07T15:06:48.743Z,54.10
2018-03-07T15:09:18.054Z,54.20
2018-03-07T15:11:46.631Z,54.20
2018-03-07T15:14:15.614Z,54.00
2018-03-07T15:16:45.410Z,53.90
2018-03-07T15:19:14.589Z,53.80
2018-03-07T15:21:43.418Z,53.70
2018-03-07T15:24:12.130Z,53.60
2018-03-07T15:26:41.804Z,53.50
2018-03-07T15:29:12.448Z,53.80
2018-03-07T15:31:41.482Z,53.70
2018-03-07T15:34:10.299Z,53.60
2018-03-07T15:36:40.485Z,53.70
2018-03-07T15:39:08.977Z,53.70
2018-03-07T15:41:39.333Z,54.10
2018-03-07T15:44:08.769Z,54.10
2018-03-07T15:46:37.360Z,54.10
2018-03-07T15:49:06.268Z,53.10
2018-03-07T15:51:35.254Z,53.50
2018-03-07T15:54:03.962Z,53.80
2018-03-07T15:56:32.492Z,53.90
2018-03-07T15:59:01.429Z,54.10
2018-03-07T16:01:30.745Z,54.10
2018-03-07T16:03:59.257Z,54.20
2018-03-07T16:06:37.127Z,54.20
2018-03-07T16:09:05.967Z,54.20
2018-03-07T16:11:34.689Z,54.20
2018-03-07T16:14:03.462Z,54.20
2018-03-07T16:16:32.001Z,54.20
2018-03-07T16:19:02.372Z,54.20
2018-03-07T16:21:30.983Z,54.30
2018-03-07T16:23:59.466Z,54.30
2018-03-07T16:26:29.064Z,54.40
2018-03-07T16:28:57.716Z,54.40
2018-03-07T16:31:26.420Z,54.40
2018-03-07T16:34:05.362Z,54.40
2018-03-07T16:36:35.833Z,54.40
2018-03-07T16:39:05.274Z,54.50
2018-03-07T16:41:34.426Z,54.50
2018-03-07T16:44:06.360Z,54.60
2018-03-07T16:46:35.679Z,54.60
2018-03-07T16:49:05.357Z,54.70
2018-03-07T16:51:34.557Z,54.70
2018-03-07T16:54:22.393Z,54.70
2018-03-07T16:57:00.459Z,55.10
2018-03-07T17:05:39.645Z,56.40
2018-03-07T17:08:08.180Z,57.30
2018-03-07T17:10:36.693Z,57.30
2018-03-07T17:13:05.199Z,57.60
2018-03-07T17:15:33.738Z,57.70
2018-03-07T17:18:03.164Z,58.00
2018-03-07T17:20:31.756Z,57.90
2018-03-07T17:23:00.709Z,57.90
2018-03-07T17:25:30.392Z,58.10
2018-03-07T17:28:05.797Z,57.90
2018-03-07T17:30:35.299Z,58.00
2018-03-07T17:33:04.260Z,57.80
2018-03-07T17:38:33.309Z,57.70
2018-03-07T17:41:32.391Z,57.60
2018-03-07T17:44:02.950Z,57.50
2018-03-07T17:46:54.689Z,57.50
2018-03-07T17:49:42.171Z,57.60
2018-03-07T17:52:11.404Z,57.50
2018-03-07T17:54:43.846Z,57.30
2018-03-07T17:57:13.990Z,57.30
2018-03-07T17:59:42.605Z,57.40
2018-03-07T18:02:16.346Z,57.50
2018-03-07T18:04:48.909Z,57.30
2018-03-07T18:07:17.624Z,57.30
2018-03-07T18:09:47.251Z,57.10
2018-03-07T18:12:33.134Z,56.90
2018-03-07T18:15:02.891Z,56.90
2018-03-07T18:17:31.637Z,56.90
2018-03-07T18:20:00.200Z,56.80
2018-03-07T18:22:53.642Z,56.80
2018-03-07T18:25:22.443Z,56.80
2018-03-07T18:27:51.334Z,56.80
2018-03-07T18:30:19.962Z,56.80
2018-03-07T18:32:48.884Z,56.80
2018-03-07T18:35:18.887Z,56.70
2018-03-07T18:37:47.372Z,56.50
2018-03-07T18:40:17.617Z,56.40
2018-03-07T18:42:46.200Z,56.40
2018-03-07T18:45:15.411Z,56.40
2018-03-07T18:47:47.332Z,56.60
2018-03-07T18:50:25.718Z,56.70
2018-03-07T18:52:55.063Z,56.90
2018-03-07T18:55:23.576Z,56.90
2018-03-07T18:57:52.322Z,57.20
2018-03-07T19:00:23.260Z,57.90
2018-03-07T19:02:52.240Z,59.10
2018-03-07T19:05:26.004Z,59.70
2018-03-07T19:08:01.153Z,60.50
2018-03-07T19:10:30.049Z,60.80
2018-03-07T19:12:58.727Z,60.80
2018-03-07T19:15:27.358Z,60.60
2018-03-07T19:17:56.313Z,60.30
2018-03-07T19:20:25.388Z,60.00
2018-03-07T19:22:54.295Z,59.90
2018-03-07T19:25:29.590Z,59.60
2018-03-07T19:27:58.095Z,59.40
2018-03-07T19:30:35.246Z,59.30
2018-03-07T19:33:04.290Z,59.20
2018-03-07T19:35:34.251Z,59.20
2018-03-07T19:38:03.780Z,58.50
2018-03-07T19:40:32.387Z,58.40
2018-03-07T19:43:02.135Z,58.20
2018-03-07T19:45:31.490Z,58.00
2018-03-07T19:48:00.360Z,57.90
2018-03-07T19:50:28.864Z,57.60
2018-03-07T19:52:57.494Z,57.60
2018-03-07T19:55:26.744Z,57.00
2018-03-07T19:57:56.774Z,57.00
2018-03-07T20:00:30.930Z,57.30
2018-03-07T20:02:59.902Z,57.30
2018-03-07T20:05:29.212Z,57.20
2018-03-07T20:07:58.277Z,57.20
2018-03-07T20:10:27.000Z,57.70
2018-03-07T20:12:56.318Z,56.70
2018-03-07T20:15:25.597Z,56.60
2018-03-07T20:17:54.263Z,56.60
2018-03-07T20:20:24.700Z,56.50
2018-03-07T20:22:54.196Z,56.40
2018-03-07T20:25:23.536Z,56.40
2018-03-07T20:27:52.890Z,56.20
2018-03-07T20:30:22.226Z,55.70
2018-03-07T20:32:51.591Z,55.40
2018-03-07T20:35:20.293Z,55.30
2018-03-07T20:37:50.054Z,55.50
2018-03-07T20:40:18.793Z,55.40
2018-03-07T20:42:47.478Z,55.50
2018-03-07T20:45:18.230Z,55.70
2018-03-07T20:47:46.904Z,55.80
2018-03-07T20:50:15.374Z,55.90
2018-03-07T20:52:43.988Z,55.90
2018-03-07T20:55:13.859Z,56.30
2018-03-07T20:57:42.877Z,56.10
2018-03-07T21:00:12.237Z,56.10
2018-03-07T21:02:42.025Z,56.20
2018-03-07T21:05:12.078Z,55.20
2018-03-07T21:07:40.534Z,55.20
2018-03-07T21:10:09.857Z,55.80
2018-03-07T21:12:39.399Z,56.50
2018-03-07T21:15:08.018Z,55.90
2018-03-07T21:17:37.847Z,56.30
2018-03-07T21:20:09.434Z,56.30
2018-03-07T21:22:38.137Z,56.40
2018-03-07T21:25:06.699Z,56.30
2018-03-07T21:27:36.121Z,56.40
2018-03-07T21:30:07.372Z,56.70
2018-03-07T21:32:36.178Z,56.70
2018-03-07T21:35:05.987Z,56.70
2018-03-07T21:37:35.248Z,56.80
2018-03-07T21:40:03.858Z,56.80
2018-03-07T21:42:33.362Z,56.80
2018-03-07T21:45:02.169Z,56.90
2018-03-07T21:47:30.789Z,56.90
2018-03-07T21:50:00.140Z,56.90
2018-03-07T21:52:29.750Z,56.90
2018-03-07T21:54:58.239Z,56.90
2018-03-07T21:57:27.115Z,56.90
2018-03-07T21:59:56.543Z,56.90
2018-03-07T22:02:27.281Z,56.90
2018-03-07T22:05:00.358Z,56.90
2018-03-07T22:07:35.564Z,57.00
2018-03-07T22:10:04.640Z,56.90
2018-03-07T22:12:35.930Z,56.90
2018-03-07T22:15:08.722Z,56.90
2018-03-07T22:17:37.652Z,56.90
2018-03-07T22:20:08.656Z,56.90
2018-03-07T22:22:39.109Z,56.80
2018-03-07T22:25:08.583Z,57.40
2018-03-07T22:27:37.281Z,56.90
2018-03-07T22:30:06.049Z,56.90
2018-03-07T22:32:34.551Z,56.90
2018-03-07T22:35:03.187Z,56.90
2018-03-07T22:37:31.773Z,56.90
2018-03-07T22:40:00.430Z,56.90
2018-03-07T22:42:29.766Z,56.90
2018-03-07T22:44:58.481Z,56.90
2018-03-07T22:47:27.046Z,56.90
2018-03-07T22:49:55.575Z,56.80
2018-03-07T22:52:25.057Z,57.00
2018-03-07T22:54:53.499Z,56.90
2018-03-07T22:57:22.246Z,57.50
2018-03-07T22:59:51.126Z,57.50
2018-03-07T23:02:19.664Z,56.70
2018-03-07T23:04:48.185Z,56.70
2018-03-07T23:07:16.765Z,56.70
2018-03-07T23:09:45.281Z,56.70
2018-03-07T23:12:14.522Z,56.50
2018-03-07T23:14:43.211Z,56.50
2018-03-07T23:17:11.840Z,56.60
2018-03-07T23:19:41.671Z,56.50
2018-03-07T23:22:11.139Z,56.40
2018-03-07T23:24:40.361Z,56.40
2018-03-07T23:27:10.978Z,56.60
2018-03-07T23:29:40.343Z,56.50
2018-03-07T23:32:08.875Z,56.50
2018-03-07T23:34:39.107Z,56.40
2018-03-07T23:37:08.333Z,56.60
2018-03-07T23:39:37.077Z,56.50
2018-03-07T23:42:05.536Z,56.40
2018-03-07T23:44:34.985Z,56.10
2018-03-07T23:47:04.424Z,56.20
2018-03-07T23:49:33.106Z,56.10
2018-03-07T23:52:02.518Z,56.20
2018-03-07T23:54:30.967Z,56.20
2018-03-07T23:56:59.600Z,56.30
2018-03-07T23:59:28.216Z,56.40
